Time;durP1;ratioP1;P1;durP2;ratioP2;P2;SDS_P1;SDS_P2;PMS_P1;PMS_P2;Temp;Humidity;BMP_temperature;BMP_pressure;BME280_temperature;BME280_humidity;BME280_pressure;Samples;Min_cycle;Max_cycle;Signal;HPM_P1;HPM_P2
2021/10/29 00:00:15;;;;;;;17.02;9.93;;;;;;;7.04;76.71;95748.84;5064333;28;20052;-55
2021/10/29 00:03:00;;;;;;;18.23;10.43;;;;;;;7.17;76.13;95747.91;5057338;28;20064;-54
2021/10/29 00:05:27;;;;;;;14.32;10.18;;;;;;;7.03;76.78;95747.25;5070997;28;20052;-55
2021/10/29 00:07:54;;;;;;;12.00;10.13;;;;;;;7.11;76.59;95743.78;5052267;28;20411;-55
2021/10/29 00:10:21;;;;;;;15.32;9.82;;;;;;;7.12;76.03;95755.34;5055853;28;20068;-54
2021/10/29 00:12:48;;;;;;;12.23;9.10;;;;;;;6.92;76.68;95756.72;5063219;28;20045;-52
2021/10/29 00:15:16;;;;;;;14.13;9.50;;;;;;;6.27;79.64;95742.91;5071613;28;20056;-54
2021/10/29 00:17:43;;;;;;;12.10;9.43;;;;;;;6.58;79.19;95750.13;5070843;28;20044;-50
2021/10/29 00:20:11;;;;;;;12.02;9.60;;;;;;;6.54;79.31;95757.25;5063318;28;20490;-53
2021/10/29 00:22:38;;;;;;;12.75;9.48;;;;;;;6.27;79.91;95750.97;5070532;28;20072;-54
2021/10/29 00:25:05;;;;;;;13.57;9.38;;;;;;;6.80;78.15;95751.94;5067069;28;20120;-52
2021/10/29 00:27:32;;;;;;;47.83;11.80;;;;;;;6.75;78.10;95746.69;5071168;28;20129;-50
2021/10/29 00:29:59;;;;;;;17.27;10.73;;;;;;;6.96;76.99;95745.03;5075072;28;20072;-53
2021/10/29 00:32:28;;;;;;;20.27;9.75;;;;;;;6.84;76.72;95735.97;5071669;28;20131;-55
2021/10/29 00:34:55;;;;;;;22.00;10.20;;;;;;;6.96;76.23;95741.56;5070748;28;20044;-51
2021/10/29 00:37:23;;;;;;;13.13;9.43;;;;;;;6.93;76.29;95742.19;5070706;28;20076;-54
2021/10/29 00:39:50;;;;;;;13.52;9.55;;;;;;;6.96;76.14;95739.66;5067777;28;20040;-53
2021/10/29 00:42:17;;;;;;;15.13;9.60;;;;;;;6.93;76.00;95734.09;5071811;28;20458;-54
2021/10/29 00:44:44;;;;;;;11.15;9.15;;;;;;;6.85;76.64;95734.88;5069672;28;20041;-49
2021/10/29 00:47:11;;;;;;;14.60;9.75;;;;;;;6.88;76.67;95737.72;5060342;28;20037;-55
2021/10/29 00:49:38;;;;;;;16.05;10.35;;;;;;;7.08;75.72;95727.47;5064542;28;20037;-55
2021/10/29 00:52:06;;;;;;;13.40;10.05;;;;;;;6.60;76.81;95742.56;5070798;28;20048;-50
2021/10/29 00:54:34;;;;;;;13.90;9.90;;;;;;;6.73;77.49;95738.97;5066923;28;20041;-50
2021/10/29 00:57:01;;;;;;;15.55;9.20;;;;;;;6.69;77.26;95724.53;5070366;28;20066;-50
2021/10/29 00:59:28;;;;;;;13.43;9.32;;;;;;;6.82;76.87;95725.53;5070351;28;20417;-50
2021/10/29 01:01:55;;;;;;;13.13;9.27;;;;;;;6.64;77.38;95715.84;5052294;28;20045;-51
2021/10/29 01:04:22;;;;;;;14.45;10.32;;;;;;;6.73;77.75;95724.72;5061469;28;20127;-51
2021/10/29 01:06:49;;;;;;;13.18;8.82;;;;;;;6.79;77.03;95726.13;5071490;28;20036;-49
2021/10/29 01:09:16;;;;;;;13.32;8.63;;;;;;;6.76;77.11;95714.13;5063346;28;20055;-51
2021/10/29 01:11:43;;;;;;;11.68;9.25;;;;;;;6.60;76.89;95712.16;5059786;28;20170;-51
2021/10/29 01:14:11;;;;;;;11.13;9.30;;;;;;;6.91;76.29;95720.16;5070247;28;20516;-50
2021/10/29 01:16:38;;;;;;;10.43;8.32;;;;;;;6.79;76.53;95708.13;5071404;28;20128;-51
2021/10/29 01:19:05;;;;;;;14.45;9.27;;;;;;;7.01;75.15;95709.91;5058619;28;20580;-52
2021/10/29 01:21:32;;;;;;;26.58;9.32;;;;;;;6.60;75.92;95707.63;5057795;28;20059;-51
2021/10/29 01:23:59;;;;;;;15.43;8.88;;;;;;;6.78;75.77;95700.38;5070218;28;20143;-52
2021/10/29 01:26:26;;;;;;;11.38;8.95;;;;;;;6.70;75.65;95703.84;5071008;28;20039;-49
2021/10/29 01:28:55;;;;;;;12.75;8.88;;;;;;;6.55;77.07;95691.63;5068450;28;20625;-50
2021/10/29 01:31:22;;;;;;;11.02;8.68;;;;;;;6.40;77.53;95689.34;5068977;28;20040;-50
2021/10/29 01:33:50;;;;;;;11.20;8.55;;;;;;;6.52;77.61;95687.66;5070971;28;20041;-47
2021/10/29 01:36:17;;;;;;;15.73;9.20;;;;;;;6.70;76.56;95687.72;5069483;28;20047;-49
2021/10/29 01:38:45;;;;;;;13.02;9.57;;;;;;;6.57;76.94;95681.34;5070966;28;20047;-49
2021/10/29 01:41:12;;;;;;;17.60;8.90;;;;;;;6.72;76.04;95691.66;5054469;28;20048;-49
2021/10/29 01:43:47;;;;;;;16.73;9.55;;;;;;;6.69;76.49;95676.13;5051427;28;20401;-51
2021/10/29 01:46:15;;;;;;;14.27;9.32;;;;;;;6.66;76.51;95676.78;5061200;28;20041;-48
2021/10/29 01:48:52;;;;;;;11.35;8.57;;;;;;;6.19;78.04;95671.09;5068647;28;20513;-49
2021/10/29 01:51:19;;;;;;;10.38;8.43;;;;;;;6.00;79.22;95668.66;5069709;28;20087;-51
2021/10/29 01:53:46;;;;;;;11.50;8.68;;;;;;;5.78;80.28;95661.41;5069924;28;20520;-50
2021/10/29 01:56:13;;;;;;;12.15;8.25;;;;;;;5.79;80.22;95671.06;5070758;28;20048;-53
2021/10/29 01:58:40;;;;;;;11.25;8.05;;;;;;;6.21;79.17;95660.84;5058089;28;20037;-51
2021/10/29 02:01:07;;;;;;;10.25;8.57;;;;;;;6.26;78.61;95670.66;5058302;28;20059;-51
2021/10/29 02:03:35;;;;;;;11.07;8.32;;;;;;;6.52;77.97;95658.09;5064171;28;20236;-51
2021/10/29 02:06:02;;;;;;;10.32;8.25;;;;;;;6.39;77.87;95650.94;5074050;28;20551;-52
2021/10/29 02:08:30;;;;;;;13.23;8.95;;;;;;;5.85;79.47;95659.09;5071472;28;20075;-53
2021/10/29 02:10:57;;;;;;;10.35;7.25;;;;;;;5.51;81.03;95656.19;5054424;28;20685;-52
2021/10/29 02:13:25;;;;;;;11.52;7.90;;;;;;;5.94;79.77;95650.28;5072200;28;20422;-50
2021/10/29 02:15:53;;;;;;;23.23;8.32;;;;;;;5.81;78.96;95646.56;5073769;28;20051;-51
2021/10/29 02:18:20;;;;;;;19.40;8.43;;;;;;;5.96;79.00;95642.72;5070587;28;20044;-51
2021/10/29 02:20:47;;;;;;;16.30;7.97;;;;;;;6.10;78.45;95643.41;5074282;28;20047;-54
2021/10/29 02:23:15;;;;;;;11.15;8.25;;;;;;;6.30;77.73;95634.00;5072431;28;20044;-52
2021/10/29 02:25:46;;;;;;;11.27;8.65;;;;;;;6.32;77.72;95637.16;5074123;28;20120;-55
2021/10/29 02:28:16;;;;;;;9.73;7.63;;;;;;;6.51;76.78;95631.53;5071019;28;20483;-54
2021/10/29 02:30:43;;;;;;;12.50;8.30;;;;;;;6.68;76.23;95636.94;5064172;28;20454;-54
2021/10/29 02:33:11;;;;;;;10.63;8.20;;;;;;;6.42;77.22;95630.72;5053619;28;20106;-55
2021/10/29 02:35:38;;;;;;;9.60;7.47;;;;;;;6.59;76.20;95633.44;5060990;28;20049;-49
2021/10/29 02:38:05;;;;;;;9.48;7.60;;;;;;;6.43;76.37;95635.75;5073672;28;20386;-52
2021/10/29 02:40:32;;;;;;;9.10;7.53;;;;;;;5.28;80.75;95634.75;5060266;28;20127;-49
2021/10/29 02:42:59;;;;;;;17.75;7.25;;;;;;;5.34;80.67;95641.56;5073861;28;20494;-52
2021/10/29 02:45:27;;;;;;;9.20;7.07;;;;;;;5.78;80.15;95641.81;5071931;28;20532;-52
2021/10/29 02:47:54;;;;;;;9.60;7.22;;;;;;;5.86;78.96;95628.44;5073513;28;20062;-52
2021/10/29 02:50:22;;;;;;;10.23;7.85;;;;;;;6.20;77.45;95627.00;5071427;28;20405;-50
2021/10/29 02:52:49;;;;;;;10.13;8.18;;;;;;;6.23;77.13;95631.75;5073389;28;20116;-52
2021/10/29 02:55:17;;;;;;;11.45;8.00;;;;;;;6.25;77.14;95634.94;5071508;28;20063;-53
2021/10/29 02:57:45;;;;;;;9.38;7.57;;;;;;;6.20;77.14;95636.97;5072451;28;20050;-53
2021/10/29 03:00:16;;;;;;;12.60;8.40;;;;;;;6.63;75.92;95629.03;5066801;28;20406;-53
2021/10/29 03:02:45;;;;;;;10.30;7.78;;;;;;;6.59;75.48;95628.06;5061263;28;20498;-51
2021/10/29 03:05:12;;;;;;;10.25;8.43;;;;;;;6.35;76.55;95625.81;5072450;28;20456;-55
2021/10/29 03:07:39;;;;;;;11.10;8.60;;;;;;;6.37;76.35;95620.09;5071318;28;20040;-51
2021/10/29 03:10:09;;;;;;;15.98;8.35;;;;;;;6.14;76.19;95616.72;5064265;28;20072;-54
2021/10/29 03:12:36;;;;;;;10.88;8.40;;;;;;;6.07;76.98;95619.84;5071831;28;20044;-49
2021/10/29 03:15:05;;;;;;;9.25;7.75;;;;;;;6.12;76.91;95625.09;5072362;28;20516;-51
2021/10/29 03:17:32;;;;;;;8.95;7.75;;;;;;;6.15;76.67;95623.69;5071144;28;20075;-50
2021/10/29 03:19:59;;;;;;;12.63;8.00;;;;;;;6.25;76.25;95618.03;5072617;28;20127;-51
2021/10/29 03:22:26;;;;;;;9.38;7.13;;;;;;;5.88;76.65;95613.91;5072103;28;20064;-54
2021/10/29 03:24:53;;;;;;;12.77;7.70;;;;;;;5.94;76.86;95615.38;5072749;28;20120;-51
2021/10/29 03:27:20;;;;;;;9.10;7.28;;;;;;;5.61;77.85;95611.09;5059351;28;20069;-50
2021/10/29 03:29:47;;;;;;;9.98;7.80;;;;;;;5.81;77.82;95614.34;5052652;28;20139;-51
2021/10/29 03:32:15;;;;;;;9.18;7.55;;;;;;;5.63;77.75;95603.53;5069601;28;20151;-49
2021/10/29 03:34:41;;;;;;;8.60;6.95;;;;;;;5.27;80.03;95605.56;5070473;28;20044;-50
2021/10/29 03:38:02;;;;;;;8.40;7.35;;;;;;;5.65;79.58;95599.75;5070938;28;20497;-51
2021/10/29 03:42:51;;;;;;;10.10;7.85;;;;;;;5.67;79.05;95595.66;5072494;28;20131;-48
2021/10/29 03:45:19;;;;;;;14.40;8.25;;;;;;;5.84;78.12;95592.25;5071678;28;20119;-48
2021/10/29 03:47:52;;;;;;;10.88;7.82;;;;;;;5.75;78.60;95594.94;5066797;28;20128;-50
2021/10/29 03:50:28;;;;;;;9.73;8.27;;;;;;;5.90;77.96;95584.88;5063602;28;20047;-52
2021/10/29 03:55:41;;;;;;;9.52;7.88;;;;;;;5.66;78.49;95585.25;5072136;28;20052;-51
2021/10/29 03:58:08;;;;;;;12.25;7.90;;;;;;;5.70;78.38;95586.22;5067026;28;20499;-49
2021/10/29 04:00:36;;;;;;;9.85;7.15;;;;;;;5.95;77.81;95584.75;5070895;28;20506;-50
2021/10/29 04:03:04;;;;;;;14.65;7.50;;;;;;;6.04;76.26;95580.97;5071380;28;20060;-48
2021/10/29 04:05:33;;;;;;;10.18;7.97;;;;;;;5.75;77.91;95584.19;5071243;28;20146;-49
2021/10/29 04:08:01;;;;;;;10.15;7.85;;;;;;;5.21;80.49;95588.78;5066446;28;20039;-46
2021/10/29 04:10:29;;;;;;;9.57;7.93;;;;;;;5.40;80.16;95580.53;5052208;28;20041;-49
2021/10/29 04:13:00;;;;;;;14.15;7.32;;;;;;;5.50;79.88;95582.16;5066633;28;20131;-52
2021/10/29 04:15:27;;;;;;;8.75;7.53;;;;;;;5.65;78.85;95573.69;5071096;28;20052;-54
2021/10/29 04:17:55;;;;;;;9.43;7.68;;;;;;;5.79;78.60;95577.09;5069234;28;20042;-51
2021/10/29 04:20:23;;;;;;;9.75;8.02;;;;;;;5.58;78.86;95573.34;5069984;28;20044;-52
2021/10/29 04:22:52;;;;;;;11.52;8.48;;;;;;;5.74;78.90;95577.22;5071536;28;20044;-52
2021/10/29 04:25:19;;;;;;;10.80;8.27;;;;;;;5.90;78.32;95576.81;5065206;28;20402;-55
2021/10/29 04:28:01;;;;;;;11.70;8.75;;;;;;;6.04;77.78;95585.56;5061742;28;20086;-49
2021/10/29 04:30:29;;;;;;;12.77;8.65;;;;;;;6.09;77.45;95588.91;5064653;28;20129;-50
2021/10/29 04:32:57;;;;;;;27.15;9.70;;;;;;;6.26;76.50;95580.09;5064684;28;20498;-48
2021/10/29 04:35:26;;;;;;;12.90;8.65;;;;;;;5.70;78.36;95581.63;5071283;28;20053;-48
2021/10/29 04:37:53;;;;;;;10.68;7.90;;;;;;;5.79;78.16;95579.78;5069722;28;20047;-49
2021/10/29 04:40:20;;;;;;;10.55;7.70;;;;;;;6.06;77.26;95572.63;5071532;28;20044;-51
2021/10/29 04:42:47;;;;;;;10.30;7.68;;;;;;;5.90;77.91;95568.75;5071066;28;20132;-51
2021/10/29 04:45:15;;;;;;;10.00;7.70;;;;;;;6.04;77.01;95564.88;5070624;28;20119;-49
2021/10/29 04:47:42;;;;;;;10.32;7.93;;;;;;;6.12;77.04;95563.31;5068134;28;20041;-50
2021/10/29 04:50:10;;;;;;;10.40;8.23;;;;;;;6.08;76.99;95555.09;5071058;28;20490;-50
2021/10/29 04:52:37;;;;;;;11.45;8.38;;;;;;;6.13;76.81;95556.06;5071008;28;20506;-52
2021/10/29 04:55:04;;;;;;;9.93;8.00;;;;;;;6.06;77.37;95551.94;5070813;28;20049;-55
2021/10/29 04:57:31;;;;;;;12.20;8.35;;;;;;;6.19;76.62;95558.28;5062424;28;20044;-52
2021/10/29 05:00:00;;;;;;;10.30;8.00;;;;;;;6.18;76.11;95545.97;5067526;28;20052;-51
2021/10/29 05:02:27;;;;;;;11.32;8.95;;;;;;;6.37;75.92;95542.19;5070882;28;20116;-50
2021/10/29 05:04:54;;;;;;;10.45;8.55;;;;;;;6.02;76.99;95539.44;5070486;28;20051;-47
2021/10/29 05:07:21;;;;;;;10.10;8.43;;;;;;;5.91;77.67;95551.53;5071281;28;20036;-47
2021/10/29 05:09:48;;;;;;;9.32;7.85;;;;;;;5.74;78.10;95536.16;5070098;28;20379;-54
2021/10/29 05:12:15;;;;;;;12.20;8.18;;;;;;;5.83;77.99;95537.78;5070665;28;20147;-50
2021/10/29 05:14:42;;;;;;;9.82;7.60;;;;;;;5.79;78.42;95542.19;5070532;28;20052;-50
2021/10/29 05:17:09;;;;;;;14.73;7.65;;;;;;;6.01;77.15;95537.84;5067168;28;20056;-46
2021/10/29 05:19:36;;;;;;;10.10;7.78;;;;;;;6.00;77.48;95541.66;5051003;28;20049;-49
2021/10/29 05:22:03;;;;;;;12.55;8.18;;;;;;;5.94;77.71;95538.31;5062446;28;20044;-48
2021/10/29 05:24:31;;;;;;;10.30;8.77;;;;;;;5.96;77.35;95540.69;5069649;28;20071;-50
2021/10/29 05:26:58;;;;;;;15.25;8.48;;;;;;;6.09;76.71;95545.16;5060450;28;20036;-48
2021/10/29 05:29:25;;;;;;;12.68;7.88;;;;;;;5.99;76.88;95540.84;5070530;28;20501;-49
2021/10/29 05:31:52;;;;;;;9.90;7.50;;;;;;;6.12;76.56;95541.84;5060296;28;20157;-45
2021/10/29 05:34:20;;;;;;;10.25;7.75;;;;;;;6.12;76.70;95538.38;5071018;28;20048;-47
2021/10/29 05:36:48;;;;;;;9.38;7.22;;;;;;;5.91;77.53;95538.09;5069852;28;20054;-50
2021/10/29 05:39:15;;;;;;;9.32;7.82;;;;;;;5.96;77.32;95536.09;5074192;28;20071;-51
2021/10/29 05:41:47;;;;;;;11.10;7.88;;;;;;;6.11;77.22;95531.38;5067671;28;20490;-49
2021/10/29 05:44:16;;;;;;;15.55;8.00;;;;;;;6.15;76.71;95532.38;5059592;28;20405;-46
2021/10/29 05:46:43;;;;;;;9.10;7.40;;;;;;;6.16;76.76;95539.31;5073918;28;20041;-45
2021/10/29 05:49:12;;;;;;;10.65;8.02;;;;;;;6.05;77.10;95541.50;5065207;28;20051;-47
2021/10/29 05:51:46;;;;;;;11.23;7.68;;;;;;;6.07;76.94;95542.75;5073055;28;20045;-48
2021/10/29 05:57:01;;;;;;;10.38;8.02;;;;;;;5.98;77.60;95546.53;5068583;28;20041;-51
2021/10/29 05:59:29;;;;;;;10.57;7.78;;;;;;;5.96;77.78;95543.38;5074277;28;20029;-47
2021/10/29 06:01:56;;;;;;;10.48;7.78;;;;;;;5.84;77.88;95542.03;5070489;28;20040;-49
2021/10/29 06:04:23;;;;;;;30.98;9.65;;;;;;;6.36;75.90;95544.06;5074564;28;20040;-46
2021/10/29 06:06:57;;;;;;;46.75;10.85;;;;;;;5.67;78.43;95552.72;5069541;28;20379;-49
2021/10/29 06:09:25;;;;;;;39.60;11.20;;;;;;;4.92;82.12;95557.84;5069548;28;20495;-46
2021/10/29 06:11:52;;;;;;;62.45;11.35;;;;;;;5.07;81.46;95561.22;5073680;28;20040;-49
2021/10/29 06:14:20;;;;;;;43.80;11.80;;;;;;;4.90;82.17;95557.34;5083744;28;20041;-46
2021/10/29 06:16:47;;;;;;;56.70;12.23;;;;;;;4.32;85.64;95555.47;5074156;28;20174;-45
2021/10/29 06:19:14;;;;;;;53.08;12.88;;;;;;;4.30;86.15;95562.22;5062959;28;20118;-45
2021/10/29 06:24:28;;;;;;;20.80;9.88;;;;;;;4.29;86.08;95561.44;5068911;28;20098;-47
2021/10/29 06:27:08;;;;;;;49.80;11.88;;;;;;;4.31;86.11;95563.78;5073685;28;20133;-48
2021/10/29 06:29:35;;;;;;;13.70;9.85;;;;;;;4.31;86.57;95564.56;5074004;28;20044;-50
2021/10/29 06:32:05;;;;;;;62.78;11.98;;;;;;;4.85;83.44;95562.84;5061060;28;20040;-47
2021/10/29 06:34:36;;;;;;;46.85;10.63;;;;;;;4.62;82.88;95563.91;5070412;28;20156;-50
2021/10/29 06:37:05;;;;;;;22.05;9.65;;;;;;;4.61;83.66;95568.47;5063756;28;20040;-50
2021/10/29 06:39:33;;;;;;;42.30;10.45;;;;;;;4.87;82.93;95574.03;5071436;28;20478;-47
2021/10/29 06:42:05;;;;;;;77.00;11.55;;;;;;;4.37;83.89;95563.38;5073858;28;20510;-50
2021/10/29 06:44:49;;;;;;;100.70;14.02;;;;;;;3.72;87.68;95566.31;5069710;28;20496;-47
2021/10/29 07:41:36;;;;;;;43.88;11.43;;;;;;;4.88;82.67;95577.53;5072070;28;20044;-47
2021/10/29 07:44:13;;;;;;;14.75;9.82;;;;;;;4.30;85.34;95586.31;5057050;28;20045;-48
2021/10/29 07:46:41;;;;;;;13.18;9.07;;;;;;;4.16;87.63;95587.13;5071550;28;20048;-48
2021/10/29 07:49:08;;;;;;;14.70;9.05;;;;;;;4.32;85.16;95586.78;5052309;28;20045;-50
2021/10/29 07:51:37;;;;;;;15.63;9.32;;;;;;;4.61;85.50;95592.56;5063653;28;20072;-53
2021/10/29 07:54:05;;;;;;;29.90;10.18;;;;;;;4.67;84.14;95601.31;5071265;28;20496;-52
2021/10/29 07:56:32;;;;;;;22.92;10.20;;;;;;;4.68;84.86;95601.00;5071753;28;20048;-46
2021/10/29 07:59:20;;;;;;;13.88;9.18;;;;;;;4.20;86.26;95612.22;5070461;28;20076;-46
2021/10/29 08:01:50;;;;;;;16.40;10.52;;;;;;;4.73;84.43;95610.81;5064593;28;20480;-46
2021/10/29 08:04:21;;;;;;;30.88;11.02;;;;;;;4.85;83.72;95611.09;5066920;28;20102;-46
2021/10/29 08:06:50;;;;;;;13.90;9.75;;;;;;;4.91;84.19;95612.56;5071003;28;20048;-53
2021/10/29 08:09:18;;;;;;;17.42;9.35;;;;;;;4.96;83.75;95606.28;5065860;28;20127;-49
2021/10/29 08:11:45;;;;;;;32.33;10.80;;;;;;;4.60;84.25;95611.66;5064043;28;20040;-49
2021/10/29 08:14:13;;;;;;;43.85;12.02;;;;;;;4.14;86.63;95613.41;5068465;28;20048;-50
2021/10/29 08:16:40;;;;;;;19.35;10.30;;;;;;;4.34;86.56;95601.47;5069306;28;20054;-48
2021/10/29 08:19:07;;;;;;;34.90;11.88;;;;;;;4.37;85.75;95605.44;5071072;28;20131;-51
2021/10/29 08:21:34;;;;;;;23.40;11.40;;;;;;;4.42;86.00;95603.47;5060660;28;20086;-50
2021/10/29 08:24:01;;;;;;;25.63;10.57;;;;;;;4.54;85.52;95602.91;5054253;28;20471;-52
2021/10/29 08:26:28;;;;;;;15.77;10.80;;;;;;;4.21;87.42;95607.66;5072048;28;20412;-51
2021/10/29 08:28:55;;;;;;;14.75;9.75;;;;;;;4.45;86.20;95608.22;5059685;28;20044;-51
2021/10/29 08:31:22;;;;;;;14.52;9.48;;;;;;;4.48;85.85;95606.81;5051723;28;20115;-51
2021/10/29 08:33:49;;;;;;;13.80;9.60;;;;;;;4.20;87.55;95596.16;5071158;28;20051;-51
2021/10/29 08:36:19;;;;;;;19.17;10.65;;;;;;;4.63;84.15;95598.44;5071907;28;20494;-51
2021/10/29 08:38:46;;;;;;;11.18;8.80;;;;;;;4.36;85.72;95603.88;5071309;28;20127;-51
2021/10/29 08:41:26;;;;;;;21.52;10.50;;;;;;;4.77;84.40;95606.44;5070618;28;20051;-53
2021/10/29 08:43:55;;;;;;;15.63;9.77;;;;;;;4.53;85.95;95603.22;5070615;28;20044;-51
2021/10/29 08:46:24;;;;;;;25.33;11.80;;;;;;;4.36;85.88;95603.88;5069257;28;20055;-48
2021/10/29 08:48:52;;;;;;;23.63;11.52;;;;;;;4.09;88.19;95604.66;5068947;28;20071;-48
2021/10/29 08:51:19;;;;;;;28.35;12.23;;;;;;;4.03;88.18;95601.31;5069621;28;20119;-50
2021/10/29 08:53:46;;;;;;;19.63;11.35;;;;;;;4.27;88.39;95609.13;5069983;28;20052;-50
2021/10/29 08:56:13;;;;;;;15.07;10.55;;;;;;;4.38;87.85;95605.13;5069378;28;20570;-51
2021/10/29 08:59:06;;;;;;;13.68;9.50;;;;;;;4.79;86.08;95601.56;5066164;28;20634;-50
2021/10/29 09:01:48;;;;;;;15.95;9.73;;;;;;;4.48;86.61;95601.44;5063073;28;20036;-51
2021/10/29 09:04:21;;;;;;;11.02;7.90;;;;;;;4.30;88.18;95597.81;5068417;28;20048;-49
2021/10/29 09:06:58;;;;;;;15.55;11.07;;;;;;;4.96;85.19;95592.06;5070101;28;20040;-50
2021/10/29 09:31:21;;;;;;;14.52;10.15;;;;;;;4.82;87.99;95594.81;5082264;28;20047;-52
2021/10/29 09:31:33;;;;;;;16.30;10.80;;;;;;;5.24;85.33;95593.53;5076638;28;20071;-50
2021/10/29 09:34:11;;;;;;;14.43;11.15;;;;;;;5.32;85.02;95582.06;5088240;28;20098;-50
2021/10/29 09:36:40;;;;;;;15.00;11.43;;;;;;;5.42;84.79;95583.69;5084514;28;20132;-49
2021/10/29 09:39:09;;;;;;;14.18;10.85;;;;;;;5.27;84.63;95584.88;5073850;28;20096;-53
2021/10/29 09:42:08;;;;;;;16.50;10.98;;;;;;;5.22;84.74;95582.31;5078078;28;20493;-52
2021/10/29 09:44:46;;;;;;;15.17;11.73;;;;;;;5.49;83.66;95580.56;5087633;28;20051;-51
2021/10/29 09:47:17;;;;;;;14.13;10.48;;;;;;;5.20;85.94;95584.53;5079604;28;20812;-51
2021/10/29 09:57:36;;;;;;;12.43;8.77;;;;;;;5.23;86.46;95572.38;5090152;28;20052;-52
2021/10/29 10:00:13;;;;;;;11.48;8.82;;;;;;;5.20;85.72;95571.13;5073537;28;20425;-53
2021/10/29 10:02:42;;;;;;;15.57;10.50;;;;;;;5.63;84.55;95570.56;5073009;28;20102;-51
2021/10/29 10:05:10;;;;;;;12.98;9.90;;;;;;;5.65;83.99;95564.84;5074635;28;20044;-52
2021/10/29 10:07:42;;;;;;;11.77;9.43;;;;;;;5.71;82.16;95559.03;5065263;28;20051;-51
2021/10/29 10:10:13;;;;;;;12.75;9.85;;;;;;;5.84;82.42;95563.50;5071028;28;20068;-51
2021/10/29 10:12:44;;;;;;;14.75;10.57;;;;;;;6.00;81.56;95571.19;5074648;28;20070;-53
2021/10/29 10:15:11;;;;;;;14.38;11.35;;;;;;;5.94;81.43;95567.06;5074063;28;20068;-52
2021/10/29 10:17:39;;;;;;;14.55;10.45;;;;;;;5.58;83.01;95568.78;5074139;28;20458;-52
2021/10/29 10:20:07;;;;;;;16.40;11.63;;;;;;;5.54;83.43;95569.72;5072815;28;20045;-51
2021/10/29 10:22:38;;;;;;;14.65;11.15;;;;;;;5.38;84.54;95572.78;5073339;28;20481;-52
2021/10/29 10:25:12;;;;;;;15.07;11.65;;;;;;;5.29;84.73;95560.41;5073907;28;20417;-52
2021/10/29 10:45:30;;;;;;;13.85;10.73;;;;;;;5.89;82.55;95551.06;5071099;28;20040;-52
2021/10/29 10:48:01;;;;;;;14.88;11.45;;;;;;;5.97;81.84;95555.69;5072624;28;20211;-50
2021/10/29 10:50:34;;;;;;;15.00;11.27;;;;;;;5.97;82.25;95556.47;5073487;28;20033;-52
2021/10/29 10:55:50;;;;;;;15.07;10.60;;;;;;;5.86;83.11;95553.25;5070888;28;20045;-47
2021/10/29 11:01:06;;;;;;;15.73;11.23;;;;;;;6.66;80.28;95539.69;5068527;28;20523;-51
2021/10/29 11:12:42;;;;;;;14.88;11.73;;;;;;;6.62;79.46;95524.50;5053771;28;20084;-51
2021/10/29 11:15:17;;;;;;;15.60;11.38;;;;;;;6.64;81.90;95519.59;5057478;28;20134;-47
2021/10/29 11:17:57;;;;;;;14.35;11.68;;;;;;;6.97;80.70;95520.66;5070967;28;20131;-46
2021/10/29 11:23:09;;;;;;;11.90;9.75;;;;;;;7.32;79.28;95509.06;5053942;28;20103;-46
2021/10/29 11:26:20;;;;;;;12.27;9.57;;;;;;;7.83;77.88;95507.25;5064578;28;20049;-53
2021/10/29 11:28:51;;;;;;;11.80;9.75;;;;;;;7.99;76.03;95505.56;5063286;28;20147;-46
2021/10/29 11:31:25;;;;;;;12.43;10.52;;;;;;;8.22;74.18;95503.38;5066636;28;20041;-46
2021/10/29 11:33:55;;;;;;;12.95;10.75;;;;;;;7.93;75.62;95505.00;5072683;28;20120;-46
2021/10/29 11:36:28;;;;;;;15.40;11.55;;;;;;;8.25;76.25;95501.94;5068625;28;20458;-47
2021/10/29 11:38:56;;;;;;;18.17;12.00;;;;;;;8.12;74.62;95495.69;5063603;28;20073;-51
2021/10/29 11:41:28;;;;;;;16.58;12.05;;;;;;;8.00;75.77;95491.00;5072073;28;20119;-47
2021/10/29 11:44:15;;;;;;;16.50;12.35;;;;;;;7.88;75.18;95485.53;5075369;28;20040;-51
2021/10/29 11:46:46;;;;;;;16.15;10.55;;;;;;;8.26;75.01;95487.38;5071197;28;20068;-47
2021/10/29 11:49:16;;;;;;;14.98;10.90;;;;;;;8.79;74.09;95485.84;5073544;28;20076;-46
2021/10/29 11:51:45;;;;;;;15.40;11.52;;;;;;;8.70;71.52;95483.22;5070015;28;20131;-50
2021/10/29 11:54:23;;;;;;;13.65;11.43;;;;;;;8.31;73.66;95487.94;5069463;28;20052;-52
2021/10/29 12:07:40;;;;;;;14.77;11.23;;;;;;;9.02;69.85;95465.47;5064369;28;20036;-50
2021/10/29 12:10:10;;;;;;;15.10;11.38;;;;;;;8.88;71.70;95460.38;5062250;28;20147;-51
2021/10/29 12:12:40;;;;;;;13.57;10.90;;;;;;;9.41;69.81;95449.78;5086233;28;20105;-50
2021/10/29 12:15:17;;;;;;;13.55;11.30;;;;;;;9.73;68.52;95441.94;5083164;28;20131;-53
2021/10/29 12:20:19;;;;;;;15.55;11.75;;;;;;;8.66;71.38;95448.03;5071119;28;20036;-50
2021/10/29 12:22:52;;;;;;;14.90;10.93;;;;;;;8.71;71.74;95452.44;5071058;28;20048;-51
2021/10/29 12:28:36;;;;;;;13.57;11.15;;;;;;;10.01;68.23;95447.44;5080633;28;20040;-51
2021/10/29 12:30:57;;;;;;;15.43;12.07;;;;;;;9.91;68.12;95435.19;5052227;28;20457;-49
2021/10/29 13:02:06;;;;;;;19.77;13.32;;;;;;;8.63;73.54;95410.16;5048111;28;20059;-49
2021/10/29 13:04:40;;;;;;;16.80;14.05;;;;;;;8.49;74.50;95412.38;5073052;28;20058;-50
2021/10/29 13:07:07;;;;;;;17.80;13.90;;;;;;;8.53;74.51;95405.19;5071384;28;20134;-52
2021/10/29 13:09:37;;;;;;;20.20;15.45;;;;;;;8.41;74.51;95405.91;5059118;28;20048;-52
2021/10/29 13:14:40;;;;;;;16.50;13.48;;;;;;;8.58;74.62;95397.69;5074767;28;20128;-51
2021/10/29 13:17:11;;;;;;;20.90;13.57;;;;;;;8.75;73.93;95395.94;5070530;28;20131;-50
2021/10/29 14:00:27;;;;;;;20.83;15.52;;;;;;;9.09;74.24;95373.94;5069530;28;20129;-52
2021/10/29 14:16:59;;;;;;;21.85;15.32;;;;;;;9.13;74.02;95395.66;5072805;28;20441;-51
2021/10/29 14:30:21;;;;;;;19.17;14.85;;;;;;;9.10;74.93;95380.94;5059074;28;20406;-51
2021/10/29 14:32:57;;;;;;;20.70;14.82;;;;;;;8.77;76.77;95389.06;5074297;28;20135;-49
2021/10/29 14:35:27;;;;;;;17.77;14.75;;;;;;;8.68;76.88;95387.56;5069325;28;20048;-51
2021/10/29 15:04:50;;;;;;;22.30;14.80;;;;;;;8.53;77.48;95399.78;5073216;28;20048;-55
2021/10/29 15:16:09;;;;;;;18.98;14.48;;;;;;;8.58;77.02;95399.56;5068530;28;20460;-50
2021/10/29 15:24:33;;;;;;;18.38;15.02;;;;;;;8.57;76.84;95409.56;5069836;28;20062;-48
2021/10/29 15:27:08;;;;;;;19.17;14.98;;;;;;;8.24;78.04;95397.97;5065809;28;20053;-49
2021/10/29 15:45:45;;;;;;;19.80;15.27;;;;;;;8.17;78.13;95401.97;5070132;28;20050;-47
2021/10/29 15:48:27;;;;;;;19.42;15.73;;;;;;;8.04;78.33;95413.81;5055906;28;20529;-46
2021/10/29 15:50:55;;;;;;;19.30;15.45;;;;;;;8.11;78.08;95416.75;5065315;28;20058;-47
2021/10/29 15:53:22;;;;;;;22.23;16.25;;;;;;;8.19;77.48;95407.81;5063579;28;20551;-48
2021/10/29 15:55:59;;;;;;;17.85;14.88;;;;;;;7.89;79.16;95406.28;5071505;28;20053;-48
2021/10/29 15:58:38;;;;;;;20.98;16.10;;;;;;;8.07;78.13;95388.13;5069235;28;20785;-47
2021/10/29 16:17:14;;;;;;;21.42;15.50;;;;;;;7.56;80.33;95406.97;5063745;28;20059;-55
2021/10/29 16:19:43;;;;;;;19.77;15.80;;;;;;;7.76;79.83;95410.03;5065214;28;22020;-49
2021/10/29 16:22:22;;;;;;;24.15;16.88;;;;;;;7.83;79.12;95416.50;5064768;28;20048;-52
2021/10/29 16:24:57;;;;;;;21.52;15.68;;;;;;;7.58;80.62;95426.28;5070906;28;20045;-51
2021/10/29 16:27:34;;;;;;;21.70;16.25;;;;;;;7.57;80.60;95423.91;5067648;28;20044;-48
2021/10/29 16:30:01;;;;;;;20.88;16.00;;;;;;;7.66;80.09;95422.75;5069232;28;20040;-50
2021/10/29 16:32:52;;;;;;;21.05;15.65;;;;;;;7.72;80.22;95409.88;5063995;28;20136;-47
2021/10/29 16:35:16;;;;;;;20.58;15.38;;;;;;;7.76;80.25;95410.03;5062993;28;20041;-53
2021/10/29 16:37:44;;;;;;;20.42;16.35;;;;;;;7.59;81.35;95429.78;5070317;28;20068;-54
2021/10/29 16:40:12;;;;;;;22.50;16.58;;;;;;;7.53;81.28;95407.63;5059700;28;20068;-52
2021/10/29 16:42:41;;;;;;;21.67;15.68;;;;;;;7.52;80.78;95407.97;5061830;28;20111;-52
2021/10/29 16:45:10;;;;;;;19.88;15.23;;;;;;;7.66;80.31;95411.97;5069917;28;20041;-51
2021/10/29 16:47:37;;;;;;;21.17;15.80;;;;;;;7.64;80.42;95408.06;5069769;28;20075;-54
2021/10/29 16:50:05;;;;;;;21.02;15.85;;;;;;;7.57;80.40;95405.88;5070031;28;20426;-52
2021/10/29 16:52:32;;;;;;;20.13;15.18;;;;;;;7.61;79.89;95408.72;5069980;28;20040;-51
2021/10/29 16:54:59;;;;;;;21.25;16.20;;;;;;;7.58;80.09;95410.13;5058499;28;20040;-52
2021/10/29 16:57:26;;;;;;;20.42;15.95;;;;;;;7.68;79.46;95411.66;5064905;28;20055;-53